sensor_id;sensor_type;location;lat;lon;timestamp;P1;durP1;ratioP1;P2;durP2;ratioP2
71236;SDS011;58984;51.960;5.582;2024-02-16T00:00:44;8.20;;;4.80;;
71236;SDS011;58984;51.960;5.582;2024-02-16T00:03:11;10.45;;;4.45;;
71236;SDS011;58984;51.960;5.582;2024-02-16T00:05:37;7.75;;;4.75;;
71236;SDS011;58984;51.960;5.582;2024-02-16T00:08:03;7.00;;;4.55;;
71236;SDS011;58984;51.960;5.582;2024-02-16T00:10:30;8.18;;;4.80;;
71236;SDS011;58984;51.960;5.582;2024-02-16T00:12:56;7.97;;;5.00;;
71236;SDS011;58984;51.960;5.582;2024-02-16T00:15:21;6.00;;;4.88;;
71236;SDS011;58984;51.960;5.582;2024-02-16T00:17:47;7.90;;;4.72;;
71236;SDS011;58984;51.960;5.582;2024-02-16T00:20:13;6.25;;;4.38;;
71236;SDS011;58984;51.960;5.582;2024-02-16T00:22:39;6.22;;;4.70;;
71236;SDS011;58984;51.960;5.582;2024-02-16T00:25:05;6.38;;;4.65;;
71236;SDS011;58984;51.960;5.582;2024-02-16T00:27:31;6.60;;;4.63;;
71236;SDS011;58984;51.960;5.582;2024-02-16T00:29:57;6.78;;;5.00;;
71236;SDS011;58984;51.960;5.582;2024-02-16T00:32:22;7.55;;;4.57;;
71236;SDS011;58984;51.960;5.582;2024-02-16T00:34:50;11.35;;;5.15;;
71236;SDS011;58984;51.960;5.582;2024-02-16T00:37:18;9.70;;;4.85;;
71236;SDS011;58984;51.960;5.582;2024-02-16T00:39:44;5.55;;;4.65;;
71236;SDS011;58984;51.960;5.582;2024-02-16T00:42:10;8.30;;;4.85;;
71236;SDS011;58984;51.960;5.582;2024-02-16T00:44:39;9.30;;;5.60;;
71236;SDS011;58984;51.960;5.582;2024-02-16T00:47:04;8.35;;;5.68;;
71236;SDS011;58984;51.960;5.582;2024-02-16T00:49:31;6.75;;;4.90;;
71236;SDS011;58984;51.960;5.582;2024-02-16T00:51:57;6.95;;;4.30;;
71236;SDS011;58984;51.960;5.582;2024-02-16T00:54:23;6.53;;;4.80;;
71236;SDS011;58984;51.960;5.582;2024-02-16T00:56:48;6.72;;;4.95;;
71236;SDS011;58984;51.960;5.582;2024-02-16T00:59:14;6.63;;;4.70;;
71236;SDS011;58984;51.960;5.582;2024-02-16T01:01:40;7.80;;;5.72;;
71236;SDS011;58984;51.960;5.582;2024-02-16T01:04:05;6.72;;;5.00;;
71236;SDS011;58984;51.960;5.582;2024-02-16T01:06:34;6.72;;;5.03;;
71236;SDS011;58984;51.960;5.582;2024-02-16T01:09:00;5.85;;;4.85;;
71236;SDS011;58984;51.960;5.582;2024-02-16T01:11:25;11.13;;;5.28;;
71236;SDS011;58984;51.960;5.582;2024-02-16T01:13:51;7.07;;;4.65;;
71236;SDS011;58984;51.960;5.582;2024-02-16T01:16:17;8.38;;;4.63;;
71236;SDS011;58984;51.960;5.582;2024-02-16T01:18:44;7.82;;;5.38;;
71236;SDS011;58984;51.960;5.582;2024-02-16T01:21:09;7.65;;;5.20;;
71236;SDS011;58984;51.960;5.582;2024-02-16T01:23:35;7.72;;;5.13;;
71236;SDS011;58984;51.960;5.582;2024-02-16T01:26:01;11.50;;;5.43;;
71236;SDS011;58984;51.960;5.582;2024-02-16T01:28:27;6.55;;;5.03;;
71236;SDS011;58984;51.960;5.582;2024-02-16T01:30:52;10.25;;;5.30;;
71236;SDS011;58984;51.960;5.582;2024-02-16T01:33:21;7.93;;;5.80;;
71236;SDS011;58984;51.960;5.582;2024-02-16T01:35:47;8.20;;;4.90;;
71236;SDS011;58984;51.960;5.582;2024-02-16T01:38:13;9.05;;;5.00;;
71236;SDS011;58984;51.960;5.582;2024-02-16T01:40:39;8.05;;;5.35;;
71236;SDS011;58984;51.960;5.582;2024-02-16T01:43:05;8.05;;;4.88;;
71236;SDS011;58984;51.960;5.582;2024-02-16T01:45:31;8.55;;;4.85;;
71236;SDS011;58984;51.960;5.582;2024-02-16T01:47:56;7.97;;;5.05;;
71236;SDS011;58984;51.960;5.582;2024-02-16T01:50:24;7.03;;;5.57;;
71236;SDS011;58984;51.960;5.582;2024-02-16T01:52:50;9.27;;;5.18;;
71236;SDS011;58984;51.960;5.582;2024-02-16T01:55:16;9.35;;;5.65;;
71236;SDS011;58984;51.960;5.582;2024-02-16T01:57:43;8.07;;;5.18;;
71236;SDS011;58984;51.960;5.582;2024-02-16T02:00:10;6.88;;;5.20;;
71236;SDS011;58984;51.960;5.582;2024-02-16T02:02:39;13.82;;;5.22;;
71236;SDS011;58984;51.960;5.582;2024-02-16T02:05:05;6.43;;;5.15;;
71236;SDS011;58984;51.960;5.582;2024-02-16T02:07:31;7.57;;;5.30;;
71236;SDS011;58984;51.960;5.582;2024-02-16T02:09:56;7.95;;;5.00;;
71236;SDS011;58984;51.960;5.582;2024-02-16T02:12:22;10.02;;;5.38;;
71236;SDS011;58984;51.960;5.582;2024-02-16T02:14:48;6.95;;;5.60;;
71236;SDS011;58984;51.960;5.582;2024-02-16T02:17:14;7.40;;;5.75;;
71236;SDS011;58984;51.960;5.582;2024-02-16T02:19:40;8.13;;;5.72;;
71236;SDS011;58984;51.960;5.582;2024-02-16T02:22:19;9.60;;;5.07;;
71236;SDS011;58984;51.960;5.582;2024-02-16T02:24:45;7.13;;;5.18;;
71236;SDS011;58984;51.960;5.582;2024-02-16T02:27:12;8.73;;;5.40;;
71236;SDS011;58984;51.960;5.582;2024-02-16T02:29:38;7.18;;;5.53;;
71236;SDS011;58984;51.960;5.582;2024-02-16T02:32:05;7.70;;;5.68;;
71236;SDS011;58984;51.960;5.582;2024-02-16T02:34:31;8.65;;;5.15;;
71236;SDS011;58984;51.960;5.582;2024-02-16T02:36:57;7.35;;;4.78;;
71236;SDS011;58984;51.960;5.582;2024-02-16T02:39:23;7.38;;;5.25;;
71236;SDS011;58984;51.960;5.582;2024-02-16T02:41:48;6.45;;;4.72;;
71236;SDS011;58984;51.960;5.582;2024-02-16T02:44:14;7.70;;;5.32;;
71236;SDS011;58984;51.960;5.582;2024-02-16T02:46:40;9.77;;;5.35;;
71236;SDS011;58984;51.960;5.582;2024-02-16T02:49:06;5.68;;;4.95;;
71236;SDS011;58984;51.960;5.582;2024-02-16T02:51:32;6.85;;;5.15;;
71236;SDS011;58984;51.960;5.582;2024-02-16T02:53:58;10.15;;;5.68;;
71236;SDS011;58984;51.960;5.582;2024-02-16T02:56:23;6.22;;;5.40;;
71236;SDS011;58984;51.960;5.582;2024-02-16T02:58:49;8.18;;;5.32;;
71236;SDS011;58984;51.960;5.582;2024-02-16T03:01:14;8.05;;;5.15;;
71236;SDS011;58984;51.960;5.582;2024-02-16T03:03:40;8.02;;;5.72;;
71236;SDS011;58984;51.960;5.582;2024-02-16T03:06:07;8.50;;;5.05;;
71236;SDS011;58984;51.960;5.582;2024-02-16T03:08:33;7.45;;;5.05;;
71236;SDS011;58984;51.960;5.582;2024-02-16T03:11:00;10.00;;;5.70;;
71236;SDS011;58984;51.960;5.582;2024-02-16T03:13:25;6.75;;;5.50;;
71236;SDS011;58984;51.960;5.582;2024-02-16T03:15:52;9.70;;;5.07;;
71236;SDS011;58984;51.960;5.582;2024-02-16T03:18:18;10.02;;;5.50;;
71236;SDS011;58984;51.960;5.582;2024-02-16T03:20:44;8.02;;;5.10;;
71236;SDS011;58984;51.960;5.582;2024-02-16T03:23:13;10.02;;;4.97;;
71236;SDS011;58984;51.960;5.582;2024-02-16T03:25:39;8.23;;;5.07;;
71236;SDS011;58984;51.960;5.582;2024-02-16T03:28:05;7.20;;;5.30;;
71236;SDS011;58984;51.960;5.582;2024-02-16T03:30:34;8.05;;;4.97;;
71236;SDS011;58984;51.960;5.582;2024-02-16T03:33:00;7.38;;;4.75;;
71236;SDS011;58984;51.960;5.582;2024-02-16T03:35:25;8.48;;;4.78;;
71236;SDS011;58984;51.960;5.582;2024-02-16T03:37:52;8.13;;;5.88;;
71236;SDS011;58984;51.960;5.582;2024-02-16T03:40:18;5.88;;;4.97;;
71236;SDS011;58984;51.960;5.582;2024-02-16T03:42:43;9.70;;;5.60;;
71236;SDS011;58984;51.960;5.582;2024-02-16T03:45:09;6.82;;;5.10;;
71236;SDS011;58984;51.960;5.582;2024-02-16T03:47:36;8.13;;;5.20;;
71236;SDS011;58984;51.960;5.582;2024-02-16T03:50:02;7.38;;;5.45;;
71236;SDS011;58984;51.960;5.582;2024-02-16T03:52:28;11.30;;;5.90;;
71236;SDS011;58984;51.960;5.582;2024-02-16T03:54:54;10.45;;;5.30;;
71236;SDS011;58984;51.960;5.582;2024-02-16T03:57:19;8.02;;;5.20;;
71236;SDS011;58984;51.960;5.582;2024-02-16T03:59:45;8.90;;;5.35;;
71236;SDS011;58984;51.960;5.582;2024-02-16T04:02:11;7.13;;;4.95;;
71236;SDS011;58984;51.960;5.582;2024-02-16T04:04:40;9.70;;;5.40;;
71236;SDS011;58984;51.960;5.582;2024-02-16T04:07:06;7.75;;;4.97;;
71236;SDS011;58984;51.960;5.582;2024-02-16T04:09:33;7.85;;;5.32;;
71236;SDS011;58984;51.960;5.582;2024-02-16T04:11:59;9.07;;;5.50;;
71236;SDS011;58984;51.960;5.582;2024-02-16T04:14:26;9.35;;;5.50;;
71236;SDS011;58984;51.960;5.582;2024-02-16T04:16:52;7.75;;;4.97;;
71236;SDS011;58984;51.960;5.582;2024-02-16T04:19:17;8.18;;;5.18;;
71236;SDS011;58984;51.960;5.582;2024-02-16T04:21:43;9.20;;;5.43;;
71236;SDS011;58984;51.960;5.582;2024-02-16T04:24:09;5.90;;;4.55;;
71236;SDS011;58984;51.960;5.582;2024-02-16T04:26:35;9.23;;;4.82;;
71236;SDS011;58984;51.960;5.582;2024-02-16T04:29:00;7.35;;;5.03;;
71236;SDS011;58984;51.960;5.582;2024-02-16T04:31:29;7.35;;;4.97;;
71236;SDS011;58984;51.960;5.582;2024-02-16T04:33:54;7.65;;;5.20;;
71236;SDS011;58984;51.960;5.582;2024-02-16T04:36:20;7.63;;;5.32;;
71236;SDS011;58984;51.960;5.582;2024-02-16T04:38:46;7.40;;;5.45;;
71236;SDS011;58984;51.960;5.582;2024-02-16T04:41:12;6.05;;;5.05;;
71236;SDS011;58984;51.960;5.582;2024-02-16T04:43:38;9.60;;;5.15;;
71236;SDS011;58984;51.960;5.582;2024-02-16T04:46:04;9.52;;;5.35;;
71236;SDS011;58984;51.960;5.582;2024-02-16T04:48:30;8.20;;;4.78;;
71236;SDS011;58984;51.960;5.582;2024-02-16T04:50:57;7.47;;;4.50;;
71236;SDS011;58984;51.960;5.582;2024-02-16T04:53:23;8.02;;;5.05;;
71236;SDS011;58984;51.960;5.582;2024-02-16T04:55:48;7.70;;;4.93;;
71236;SDS011;58984;51.960;5.582;2024-02-16T04:58:14;8.68;;;5.35;;
71236;SDS011;58984;51.960;5.582;2024-02-16T05:00:40;9.00;;;5.70;;
71236;SDS011;58984;51.960;5.582;2024-02-16T05:03:06;7.57;;;5.38;;
71236;SDS011;58984;51.960;5.582;2024-02-16T05:05:32;9.75;;;5.18;;
71236;SDS011;58984;51.960;5.582;2024-02-16T05:07:57;7.38;;;4.85;;
71236;SDS011;58984;51.960;5.582;2024-02-16T05:10:23;6.63;;;4.68;;
71236;SDS011;58984;51.960;5.582;2024-02-16T05:12:49;8.68;;;5.00;;
71236;SDS011;58984;51.960;5.582;2024-02-16T05:15:15;8.85;;;5.60;;
71236;SDS011;58984;51.960;5.582;2024-02-16T05:17:42;7.38;;;5.05;;
71236;SDS011;58984;51.960;5.582;2024-02-16T05:20:11;7.80;;;5.10;;
71236;SDS011;58984;51.960;5.582;2024-02-16T05:25:10;5.32;;;4.53;;
71236;SDS011;58984;51.960;5.582;2024-02-16T05:27:40;8.20;;;5.22;;
71236;SDS011;58984;51.960;5.582;2024-02-16T05:30:06;7.45;;;4.55;;
71236;SDS011;58984;51.960;5.582;2024-02-16T05:32:35;8.77;;;5.15;;
71236;SDS011;58984;51.960;5.582;2024-02-16T05:35:02;5.75;;;4.57;;
71236;SDS011;58984;51.960;5.582;2024-02-16T05:37:36;6.72;;;5.05;;
71236;SDS011;58984;51.960;5.582;2024-02-16T05:40:16;6.10;;;4.95;;
71236;SDS011;58984;51.960;5.582;2024-02-16T05:42:54;7.50;;;5.47;;
71236;SDS011;58984;51.960;5.582;2024-02-16T05:45:23;6.20;;;4.38;;
71236;SDS011;58984;51.960;5.582;2024-02-16T05:47:49;7.07;;;4.55;;
71236;SDS011;58984;51.960;5.582;2024-02-16T05:50:15;8.80;;;4.72;;
71236;SDS011;58984;51.960;5.582;2024-02-16T05:52:42;7.88;;;5.10;;
71236;SDS011;58984;51.960;5.582;2024-02-16T05:55:09;5.95;;;4.60;;
71236;SDS011;58984;51.960;5.582;2024-02-16T05:57:35;8.77;;;5.18;;
71236;SDS011;58984;51.960;5.582;2024-02-16T06:00:06;7.97;;;5.43;;
71236;SDS011;58984;51.960;5.582;2024-02-16T06:02:33;7.88;;;5.28;;
71236;SDS011;58984;51.960;5.582;2024-02-16T06:04:59;7.47;;;5.15;;
71236;SDS011;58984;51.960;5.582;2024-02-16T06:07:25;7.70;;;5.30;;
71236;SDS011;58984;51.960;5.582;2024-02-16T06:09:51;8.02;;;5.07;;
71236;SDS011;58984;51.960;5.582;2024-02-16T06:12:17;7.47;;;4.78;;
71236;SDS011;58984;51.960;5.582;2024-02-16T06:14:43;8.38;;;4.93;;
71236;SDS011;58984;51.960;5.582;2024-02-16T06:17:08;5.65;;;4.85;;
71236;SDS011;58984;51.960;5.582;2024-02-16T06:19:35;9.35;;;5.30;;
71236;SDS011;58984;51.960;5.582;2024-02-16T06:22:00;7.10;;;4.80;;
71236;SDS011;58984;51.960;5.582;2024-02-16T06:24:26;10.02;;;5.35;;
71236;SDS011;58984;51.960;5.582;2024-02-16T06:26:53;7.88;;;4.57;;
71236;SDS011;58984;51.960;5.582;2024-02-16T06:29:19;7.38;;;5.32;;
71236;SDS011;58984;51.960;5.582;2024-02-16T06:31:46;7.90;;;5.38;;
71236;SDS011;58984;51.960;5.582;2024-02-16T06:34:13;7.38;;;4.88;;
71236;SDS011;58984;51.960;5.582;2024-02-16T06:36:39;6.03;;;5.15;;
71236;SDS011;58984;51.960;5.582;2024-02-16T06:39:04;10.55;;;5.65;;
71236;SDS011;58984;51.960;5.582;2024-02-16T06:41:30;10.13;;;5.22;;
71236;SDS011;58984;51.960;5.582;2024-02-16T06:43:55;8.75;;;4.78;;
71236;SDS011;58984;51.960;5.582;2024-02-16T06:46:21;6.95;;;5.13;;
71236;SDS011;58984;51.960;5.582;2024-02-16T06:48:47;6.40;;;5.05;;
71236;SDS011;58984;51.960;5.582;2024-02-16T06:51:13;6.28;;;4.75;;
71236;SDS011;58984;51.960;5.582;2024-02-16T06:53:39;5.10;;;4.60;;
71236;SDS011;58984;51.960;5.582;2024-02-16T06:56:04;7.78;;;5.38;;
71236;SDS011;58984;51.960;5.582;2024-02-16T06:58:30;9.70;;;5.28;;
71236;SDS011;58984;51.960;5.582;2024-02-16T07:00:56;7.18;;;5.32;;
71236;SDS011;58984;51.960;5.582;2024-02-16T07:03:23;8.65;;;5.22;;
71236;SDS011;58984;51.960;5.582;2024-02-16T07:05:49;9.20;;;5.57;;
71236;SDS011;58984;51.960;5.582;2024-02-16T07:08:15;8.00;;;5.22;;
71236;SDS011;58984;51.960;5.582;2024-02-16T07:10:40;5.70;;;4.70;;
71236;SDS011;58984;51.960;5.582;2024-02-16T07:13:06;10.05;;;5.38;;
71236;SDS011;58984;51.960;5.582;2024-02-16T07:15:32;8.95;;;5.63;;
71236;SDS011;58984;51.960;5.582;2024-02-16T07:17:57;9.35;;;5.95;;
71236;SDS011;58984;51.960;5.582;2024-02-16T07:20:23;7.07;;;5.47;;
71236;SDS011;58984;51.960;5.582;2024-02-16T07:22:49;7.07;;;5.22;;
71236;SDS011;58984;51.960;5.582;2024-02-16T07:25:16;9.40;;;5.57;;
71236;SDS011;58984;51.960;5.582;2024-02-16T07:27:42;8.73;;;5.60;;
71236;SDS011;58984;51.960;5.582;2024-02-16T07:30:08;9.30;;;5.70;;
71236;SDS011;58984;51.960;5.582;2024-02-16T07:32:36;8.40;;;5.25;;
71236;SDS011;58984;51.960;5.582;2024-02-16T07:35:02;12.70;;;6.38;;
71236;SDS011;58984;51.960;5.582;2024-02-16T07:37:28;7.40;;;5.40;;
71236;SDS011;58984;51.960;5.582;2024-02-16T07:39:54;7.13;;;5.00;;
71236;SDS011;58984;51.960;5.582;2024-02-16T07:42:19;9.52;;;5.65;;
71236;SDS011;58984;51.960;5.582;2024-02-16T07:44:45;9.75;;;5.70;;
71236;SDS011;58984;51.960;5.582;2024-02-16T07:47:12;8.82;;;5.40;;
71236;SDS011;58984;51.960;5.582;2024-02-16T07:49:38;8.82;;;5.07;;
71236;SDS011;58984;51.960;5.582;2024-02-16T07:52:07;9.55;;;5.70;;
71236;SDS011;58984;51.960;5.582;2024-02-16T07:54:34;6.97;;;5.35;;
71236;SDS011;58984;51.960;5.582;2024-02-16T07:56:59;9.00;;;5.20;;
71236;SDS011;58984;51.960;5.582;2024-02-16T07:59:25;7.07;;;5.07;;
71236;SDS011;58984;51.960;5.582;2024-02-16T08:01:51;11.55;;;6.03;;
71236;SDS011;58984;51.960;5.582;2024-02-16T08:04:16;6.82;;;5.32;;
71236;SDS011;58984;51.960;5.582;2024-02-16T08:06:42;7.57;;;5.68;;
71236;SDS011;58984;51.960;5.582;2024-02-16T08:09:08;11.57;;;5.78;;
71236;SDS011;58984;51.960;5.582;2024-02-16T08:11:33;6.90;;;5.35;;
71236;SDS011;58984;51.960;5.582;2024-02-16T08:13:59;11.00;;;5.50;;
71236;SDS011;58984;51.960;5.582;2024-02-16T08:16:28;7.85;;;5.32;;
71236;SDS011;58984;51.960;5.582;2024-02-16T08:18:54;10.57;;;5.70;;
71236;SDS011;58984;51.960;5.582;2024-02-16T08:21:20;8.52;;;5.78;;
71236;SDS011;58984;51.960;5.582;2024-02-16T08:23:46;8.90;;;5.60;;
71236;SDS011;58984;51.960;5.582;2024-02-16T08:26:12;8.27;;;5.40;;
71236;SDS011;58984;51.960;5.582;2024-02-16T08:28:38;6.85;;;5.38;;
71236;SDS011;58984;51.960;5.582;2024-02-16T08:31:04;6.45;;;5.20;;
71236;SDS011;58984;51.960;5.582;2024-02-16T08:33:30;7.78;;;5.68;;
71236;SDS011;58984;51.960;5.582;2024-02-16T08:36:00;9.32;;;5.55;;
71236;SDS011;58984;51.960;5.582;2024-02-16T08:41:14;8.27;;;5.53;;
71236;SDS011;58984;51.960;5.582;2024-02-16T08:43:40;7.90;;;5.10;;
71236;SDS011;58984;51.960;5.582;2024-02-16T08:46:05;5.88;;;4.70;;
71236;SDS011;58984;51.960;5.582;2024-02-16T08:48:32;6.57;;;5.45;;
71236;SDS011;58984;51.960;5.582;2024-02-16T08:50:58;10.13;;;5.75;;
71236;SDS011;58984;51.960;5.582;2024-02-16T08:53:24;9.65;;;5.40;;
71236;SDS011;58984;51.960;5.582;2024-02-16T08:55:49;9.88;;;6.18;;
71236;SDS011;58984;51.960;5.582;2024-02-16T08:58:15;11.55;;;6.13;;
71236;SDS011;58984;51.960;5.582;2024-02-16T09:00:41;9.52;;;6.63;;
71236;SDS011;58984;51.960;5.582;2024-02-16T09:03:06;9.27;;;6.35;;
71236;SDS011;58984;51.960;5.582;2024-02-16T09:05:33;9.50;;;6.47;;
71236;SDS011;58984;51.960;5.582;2024-02-16T09:07:59;11.23;;;6.63;;
71236;SDS011;58984;51.960;5.582;2024-02-16T09:10:25;7.63;;;6.03;;
71236;SDS011;58984;51.960;5.582;2024-02-16T09:12:50;9.95;;;6.35;;
71236;SDS011;58984;51.960;5.582;2024-02-16T09:15:17;9.77;;;5.90;;
71236;SDS011;58984;51.960;5.582;2024-02-16T09:17:43;10.55;;;6.05;;
71236;SDS011;58984;51.960;5.582;2024-02-16T09:20:08;10.18;;;6.22;;
71236;SDS011;58984;51.960;5.582;2024-02-16T09:22:36;7.57;;;5.50;;
71236;SDS011;58984;51.960;5.582;2024-02-16T09:25:04;11.40;;;6.32;;
71236;SDS011;58984;51.960;5.582;2024-02-16T09:27:30;8.23;;;5.57;;
71236;SDS011;58984;51.960;5.582;2024-02-16T09:29:56;9.57;;;6.25;;
71236;SDS011;58984;51.960;5.582;2024-02-16T09:32:21;9.10;;;6.43;;
71236;SDS011;58984;51.960;5.582;2024-02-16T09:34:47;9.57;;;5.90;;
71236;SDS011;58984;51.960;5.582;2024-02-16T09:37:13;8.73;;;6.00;;
71236;SDS011;58984;51.960;5.582;2024-02-16T09:39:39;10.23;;;6.30;;
71236;SDS011;58984;51.960;5.582;2024-02-16T09:42:06;11.07;;;6.38;;
71236;SDS011;58984;51.960;5.582;2024-02-16T09:44:31;8.95;;;6.10;;
71236;SDS011;58984;51.960;5.582;2024-02-16T09:47:01;10.00;;;6.65;;
71236;SDS011;58984;51.960;5.582;2024-02-16T09:49:28;9.95;;;6.60;;
71236;SDS011;58984;51.960;5.582;2024-02-16T09:51:54;10.18;;;6.90;;
71236;SDS011;58984;51.960;5.582;2024-02-16T09:54:24;11.73;;;6.30;;
71236;SDS011;58984;51.960;5.582;2024-02-16T09:56:50;7.55;;;6.32;;
71236;SDS011;58984;51.960;5.582;2024-02-16T09:59:16;12.73;;;6.50;;
71236;SDS011;58984;51.960;5.582;2024-02-16T10:01:41;8.93;;;6.70;;
71236;SDS011;58984;51.960;5.582;2024-02-16T10:04:08;8.85;;;6.28;;
71236;SDS011;58984;51.960;5.582;2024-02-16T10:06:45;14.45;;;7.15;;
71236;SDS011;58984;51.960;5.582;2024-02-16T10:09:27;12.27;;;6.50;;
71236;SDS011;58984;51.960;5.582;2024-02-16T10:12:03;9.70;;;6.40;;
71236;SDS011;58984;51.960;5.582;2024-02-16T10:14:30;11.88;;;7.25;;
71236;SDS011;58984;51.960;5.582;2024-02-16T10:17:03;9.30;;;6.43;;
71236;SDS011;58984;51.960;5.582;2024-02-16T10:19:31;11.02;;;7.32;;
71236;SDS011;58984;51.960;5.582;2024-02-16T10:22:10;9.23;;;6.82;;
71236;SDS011;58984;51.960;5.582;2024-02-16T10:24:37;9.25;;;7.10;;
71236;SDS011;58984;51.960;5.582;2024-02-16T10:27:13;11.85;;;7.30;;
71236;SDS011;58984;51.960;5.582;2024-02-16T10:29:42;12.73;;;7.15;;
71236;SDS011;58984;51.960;5.582;2024-02-16T10:32:10;12.75;;;7.28;;
71236;SDS011;58984;51.960;5.582;2024-02-16T10:34:37;15.32;;;7.22;;
71236;SDS011;58984;51.960;5.582;2024-02-16T10:37:05;11.48;;;7.32;;
71236;SDS011;58984;51.960;5.582;2024-02-16T10:39:32;8.60;;;6.95;;
71236;SDS011;58984;51.960;5.582;2024-02-16T10:41:58;9.07;;;6.40;;
71236;SDS011;58984;51.960;5.582;2024-02-16T10:44:27;8.95;;;6.53;;
71236;SDS011;58984;51.960;5.582;2024-02-16T10:46:54;10.95;;;7.03;;
71236;SDS011;58984;51.960;5.582;2024-02-16T10:49:23;9.95;;;6.70;;
71236;SDS011;58984;51.960;5.582;2024-02-16T10:51:51;8.60;;;6.55;;
71236;SDS011;58984;51.960;5.582;2024-02-16T10:56:52;9.15;;;7.63;;
71236;SDS011;58984;51.960;5.582;2024-02-16T10:59:18;11.75;;;7.78;;
71236;SDS011;58984;51.960;5.582;2024-02-16T11:01:44;11.98;;;7.35;;
71236;SDS011;58984;51.960;5.582;2024-02-16T11:04:14;11.35;;;7.28;;
71236;SDS011;58984;51.960;5.582;2024-02-16T11:06:45;13.10;;;8.00;;
71236;SDS011;58984;51.960;5.582;2024-02-16T11:09:29;12.02;;;7.90;;
71236;SDS011;58984;51.960;5.582;2024-02-16T11:11:58;13.02;;;8.35;;
71236;SDS011;58984;51.960;5.582;2024-02-16T11:14:34;13.50;;;8.18;;
71236;SDS011;58984;51.960;5.582;2024-02-16T11:17:12;15.05;;;8.55;;
71236;SDS011;58984;51.960;5.582;2024-02-16T11:19:42;12.93;;;8.60;;
71236;SDS011;58984;51.960;5.582;2024-02-16T11:22:09;13.52;;;8.77;;
71236;SDS011;58984;51.960;5.582;2024-02-16T11:24:36;13.10;;;8.30;;
71236;SDS011;58984;51.960;5.582;2024-02-16T11:27:07;12.43;;;8.75;;
71236;SDS011;58984;51.960;5.582;2024-02-16T11:29:35;11.95;;;8.45;;
71236;SDS011;58984;51.960;5.582;2024-02-16T11:32:02;10.45;;;7.82;;
71236;SDS011;58984;51.960;5.582;2024-02-16T11:34:28;13.20;;;8.63;;
71236;SDS011;58984;51.960;5.582;2024-02-16T11:36:55;10.77;;;8.55;;
71236;SDS011;58984;51.960;5.582;2024-02-16T11:39:22;10.07;;;8.55;;
71236;SDS011;58984;51.960;5.582;2024-02-16T11:41:48;11.35;;;8.85;;
71236;SDS011;58984;51.960;5.582;2024-02-16T11:44:23;10.90;;;8.05;;
71236;SDS011;58984;51.960;5.582;2024-02-16T11:46:53;9.38;;;7.72;;
71236;SDS011;58984;51.960;5.582;2024-02-16T11:49:19;10.90;;;9.10;;
71236;SDS011;58984;51.960;5.582;2024-02-16T11:51:45;9.77;;;7.70;;
71236;SDS011;58984;51.960;5.582;2024-02-16T11:54:10;8.65;;;7.80;;
71236;SDS011;58984;51.960;5.582;2024-02-16T11:56:37;11.35;;;8.15;;
71236;SDS011;58984;51.960;5.582;2024-02-16T11:59:04;11.32;;;8.38;;
71236;SDS011;58984;51.960;5.582;2024-02-16T12:01:31;10.85;;;9.02;;
71236;SDS011;58984;51.960;5.582;2024-02-16T12:03:59;13.13;;;8.98;;
71236;SDS011;58984;51.960;5.582;2024-02-16T12:06:25;11.82;;;8.85;;
71236;SDS011;58984;51.960;5.582;2024-02-16T12:08:50;12.02;;;9.20;;
71236;SDS011;58984;51.960;5.582;2024-02-16T12:11:19;10.65;;;8.70;;
71236;SDS011;58984;51.960;5.582;2024-02-16T12:13:45;10.25;;;8.25;;
71236;SDS011;58984;51.960;5.582;2024-02-16T12:16:11;11.38;;;8.93;;
71236;SDS011;58984;51.960;5.582;2024-02-16T12:18:37;10.85;;;7.65;;
71236;SDS011;58984;51.960;5.582;2024-02-16T12:21:03;12.27;;;8.43;;
71236;SDS011;58984;51.960;5.582;2024-02-16T12:23:35;11.48;;;8.15;;
71236;SDS011;58984;51.960;5.582;2024-02-16T12:26:01;9.85;;;8.32;;
71236;SDS011;58984;51.960;5.582;2024-02-16T12:28:31;10.77;;;9.23;;
71236;SDS011;58984;51.960;5.582;2024-02-16T12:31:01;9.38;;;8.23;;
71236;SDS011;58984;51.960;5.582;2024-02-16T12:33:27;13.77;;;9.07;;
71236;SDS011;58984;51.960;5.582;2024-02-16T12:35:52;10.52;;;8.45;;
71236;SDS011;58984;51.960;5.582;2024-02-16T12:38:19;9.70;;;7.68;;
71236;SDS011;58984;51.960;5.582;2024-02-16T12:40:54;10.13;;;8.45;;
71236;SDS011;58984;51.960;5.582;2024-02-16T12:43:20;10.90;;;8.77;;
71236;SDS011;58984;51.960;5.582;2024-02-16T12:45:45;10.57;;;7.95;;
71236;SDS011;58984;51.960;5.582;2024-02-16T12:48:11;12.27;;;8.98;;
71236;SDS011;58984;51.960;5.582;2024-02-16T12:50:39;10.20;;;8.02;;
71236;SDS011;58984;51.960;5.582;2024-02-16T12:53:06;10.65;;;8.07;;
71236;SDS011;58984;51.960;5.582;2024-02-16T12:55:32;10.85;;;8.85;;
71236;SDS011;58984;51.960;5.582;2024-02-16T12:57:58;12.90;;;8.77;;
71236;SDS011;58984;51.960;5.582;2024-02-16T13:00:24;10.80;;;8.50;;
71236;SDS011;58984;51.960;5.582;2024-02-16T13:02:50;10.75;;;8.52;;
71236;SDS011;58984;51.960;5.582;2024-02-16T13:05:15;11.90;;;9.10;;
71236;SDS011;58984;51.960;5.582;2024-02-16T13:07:41;11.90;;;8.95;;
71236;SDS011;58984;51.960;5.582;2024-02-16T13:10:07;11.82;;;8.57;;
71236;SDS011;58984;51.960;5.582;2024-02-16T13:12:34;11.30;;;8.05;;
71236;SDS011;58984;51.960;5.582;2024-02-16T13:15:00;11.25;;;8.30;;
71236;SDS011;58984;51.960;5.582;2024-02-16T13:17:27;10.57;;;8.90;;
71236;SDS011;58984;51.960;5.582;2024-02-16T13:19:52;10.45;;;8.07;;
71236;SDS011;58984;51.960;5.582;2024-02-16T13:22:18;9.60;;;7.63;;
71236;SDS011;58984;51.960;5.582;2024-02-16T13:24:44;10.05;;;7.47;;
71236;SDS011;58984;51.960;5.582;2024-02-16T13:27:10;9.20;;;7.70;;
71236;SDS011;58984;51.960;5.582;2024-02-16T13:29:35;9.20;;;7.47;;
71236;SDS011;58984;51.960;5.582;2024-02-16T13:32:01;8.40;;;7.13;;
71236;SDS011;58984;51.960;5.582;2024-02-16T13:34:28;9.88;;;6.80;;
71236;SDS011;58984;51.960;5.582;2024-02-16T13:36:55;10.30;;;7.40;;
71236;SDS011;58984;51.960;5.582;2024-02-16T13:39:21;9.73;;;7.32;;
71236;SDS011;58984;51.960;5.582;2024-02-16T13:41:47;11.43;;;6.97;;
71236;SDS011;58984;51.960;5.582;2024-02-16T13:44:15;7.40;;;6.53;;
71236;SDS011;58984;51.960;5.582;2024-02-16T13:46:42;7.65;;;6.85;;
71236;SDS011;58984;51.960;5.582;2024-02-16T13:49:12;11.57;;;7.00;;
71236;SDS011;58984;51.960;5.582;2024-02-16T13:51:39;7.18;;;6.47;;
71236;SDS011;58984;51.960;5.582;2024-02-16T13:54:05;6.50;;;5.80;;
71236;SDS011;58984;51.960;5.582;2024-02-16T13:56:30;10.18;;;6.00;;
71236;SDS011;58984;51.960;5.582;2024-02-16T13:58:56;7.55;;;6.43;;
71236;SDS011;58984;51.960;5.582;2024-02-16T14:01:22;7.05;;;5.53;;
71236;SDS011;58984;51.960;5.582;2024-02-16T14:03:49;8.13;;;5.28;;
71236;SDS011;58984;51.960;5.582;2024-02-16T14:06:16;7.70;;;6.18;;
71236;SDS011;58984;51.960;5.582;2024-02-16T14:08:41;7.95;;;5.75;;
71236;SDS011;58984;51.960;5.582;2024-02-16T14:11:07;5.60;;;4.97;;
71236;SDS011;58984;51.960;5.582;2024-02-16T14:13:34;6.63;;;5.80;;
71236;SDS011;58984;51.960;5.582;2024-02-16T14:16:00;8.13;;;4.63;;
71236;SDS011;58984;51.960;5.582;2024-02-16T14:18:26;8.52;;;5.22;;
71236;SDS011;58984;51.960;5.582;2024-02-16T14:20:51;5.88;;;4.95;;
71236;SDS011;58984;51.960;5.582;2024-02-16T14:23:17;6.50;;;5.13;;
71236;SDS011;58984;51.960;5.582;2024-02-16T14:25:43;6.32;;;4.55;;
71236;SDS011;58984;51.960;5.582;2024-02-16T14:28:08;4.88;;;4.40;;
71236;SDS011;58984;51.960;5.582;2024-02-16T14:30:34;5.63;;;4.57;;
71236;SDS011;58984;51.960;5.582;2024-02-16T14:33:00;5.72;;;4.53;;
71236;SDS011;58984;51.960;5.582;2024-02-16T14:35:26;5.65;;;4.75;;
71236;SDS011;58984;51.960;5.582;2024-02-16T14:37:51;5.22;;;4.72;;
71236;SDS011;58984;51.960;5.582;2024-02-16T14:40:17;5.93;;;4.57;;
71236;SDS011;58984;51.960;5.582;2024-02-16T14:42:43;6.18;;;4.95;;
71236;SDS011;58984;51.960;5.582;2024-02-16T14:45:09;5.50;;;4.18;;
71236;SDS011;58984;51.960;5.582;2024-02-16T14:47:43;5.15;;;4.65;;